createdAt,value
2018-09-30T00:02:25.485Z,6.30
2018-09-30T00:04:53.699Z,6.70
2018-09-30T00:07:21.879Z,6.50
2018-09-30T00:09:49.990Z,6.67
2018-09-30T00:12:18.168Z,5.60
2018-09-30T00:14:46.393Z,4.10
2018-09-30T00:17:14.510Z,4.87
2018-09-30T00:19:42.714Z,5.30
2018-09-30T00:22:10.816Z,7.80
2018-09-30T00:24:44.541Z,4.03
2018-09-30T00:27:19.730Z,4.30
2018-09-30T00:29:48.102Z,4.53
2018-09-30T00:32:16.288Z,5.47
2018-09-30T00:34:44.438Z,5.67
2018-09-30T00:37:12.624Z,5.90
2018-09-30T00:39:40.772Z,6.00
2018-09-30T00:42:08.943Z,4.63
2018-09-30T00:44:37.070Z,4.20
2018-09-30T00:47:05.236Z,4.27
2018-09-30T00:49:33.496Z,4.33
2018-09-30T00:52:01.658Z,7.00
2018-09-30T00:54:29.827Z,7.07
2018-09-30T00:56:58.070Z,6.00
2018-09-30T00:59:26.250Z,7.00
2018-09-30T01:01:54.799Z,6.00
2018-09-30T01:04:23.014Z,6.17
2018-09-30T01:06:51.187Z,5.33
2018-09-30T01:09:19.336Z,5.80
2018-09-30T01:11:47.503Z,4.87
2018-09-30T01:14:15.728Z,5.37
2018-09-30T01:16:43.844Z,6.33
2018-09-30T01:19:12.036Z,4.90
2018-09-30T01:21:40.165Z,4.17
2018-09-30T01:24:10.370Z,4.77
2018-09-30T01:26:38.519Z,4.13
2018-09-30T01:29:06.746Z,4.10
2018-09-30T01:31:35.621Z,4.50
2018-09-30T01:34:03.769Z,4.17
2018-09-30T01:36:31.973Z,3.80
2018-09-30T01:39:00.122Z,3.60
2018-09-30T01:41:29.120Z,4.20
2018-09-30T01:43:57.217Z,3.43
2018-09-30T01:46:25.360Z,3.80
2018-09-30T01:48:53.560Z,4.00
2018-09-30T01:51:21.731Z,3.90
2018-09-30T01:53:49.831Z,3.30
2018-09-30T01:56:17.972Z,3.43
2018-09-30T01:58:46.089Z,3.70
2018-09-30T02:01:14.261Z,3.10
2018-09-30T02:03:42.401Z,3.73
2018-09-30T02:06:10.598Z,4.00
2018-09-30T02:08:38.714Z,4.03
2018-09-30T02:11:07.004Z,4.00
2018-09-30T02:13:35.204Z,3.50
2018-09-30T02:16:04.525Z,3.77
2018-09-30T02:18:32.696Z,3.03
2018-09-30T02:21:00.824Z,4.30
2018-09-30T02:23:28.993Z,3.23
2018-09-30T02:25:57.126Z,3.93
2018-09-30T02:28:25.292Z,3.50
2018-09-30T02:30:53.432Z,3.80
2018-09-30T02:33:21.579Z,4.10
2018-09-30T02:35:49.746Z,3.87
2018-09-30T02:38:17.890Z,3.60
2018-09-30T02:40:46.094Z,4.87
2018-09-30T02:43:15.739Z,4.37
2018-09-30T02:45:43.864Z,4.20
2018-09-30T02:48:12.151Z,5.00
2018-09-30T02:50:40.324Z,5.30
2018-09-30T02:53:09.215Z,3.70
2018-09-30T02:55:38.823Z,4.30
2018-09-30T02:58:07.746Z,4.37
2018-09-30T03:00:35.952Z,4.53
2018-09-30T03:03:04.418Z,5.00
2018-09-30T03:05:32.646Z,4.20
2018-09-30T03:08:06.445Z,4.17
2018-09-30T03:10:34.695Z,4.43
2018-09-30T03:13:02.862Z,5.13
2018-09-30T03:15:31.050Z,5.23
2018-09-30T03:17:59.219Z,4.83
2018-09-30T03:20:27.365Z,5.17
2018-09-30T03:22:55.515Z,4.13
2018-09-30T03:25:23.659Z,3.63
2018-09-30T03:27:51.834Z,4.17
2018-09-30T03:30:19.968Z,4.43
2018-09-30T03:32:48.163Z,4.20
2018-09-30T03:35:16.378Z,5.23
2018-09-30T03:37:44.512Z,4.77
2018-09-30T03:40:12.655Z,5.50
2018-09-30T03:42:40.815Z,5.20
2018-09-30T03:45:09.310Z,4.73
2018-09-30T03:47:37.529Z,5.40
2018-09-30T03:50:05.745Z,4.23
2018-09-30T03:52:33.881Z,5.93
2018-09-30T03:55:02.011Z,6.07
2018-09-30T03:57:30.227Z,5.30
2018-09-30T03:59:58.341Z,6.07
2018-09-30T04:02:26.565Z,6.00
2018-09-30T04:04:54.753Z,4.93
2018-09-30T04:07:22.923Z,5.67
2018-09-30T04:09:51.092Z,6.00
2018-09-30T04:12:19.227Z,5.00
2018-09-30T04:14:48.245Z,5.83
2018-09-30T04:17:18.770Z,4.70
2018-09-30T04:19:46.879Z,5.77
2018-09-30T04:22:16.467Z,5.17
2018-09-30T04:24:45.913Z,5.13
2018-09-30T04:27:14.091Z,5.50
2018-09-30T04:29:43.033Z,5.00
2018-09-30T04:32:11.175Z,4.83
2018-09-30T04:34:39.366Z,4.77
2018-09-30T04:37:07.588Z,4.50
2018-09-30T04:39:36.415Z,4.37
2018-09-30T04:42:04.607Z,4.37
2018-09-30T04:44:32.877Z,4.70
2018-09-30T04:47:01.079Z,4.30
2018-09-30T04:49:29.243Z,4.83
2018-09-30T04:51:57.393Z,4.17
2018-09-30T04:54:25.586Z,4.40
2018-09-30T04:56:53.842Z,3.60
2018-09-30T04:59:22.031Z,4.40
2018-09-30T05:01:50.215Z,3.90
2018-09-30T05:04:18.397Z,4.90
2018-09-30T05:06:46.553Z,3.63
2018-09-30T05:09:14.795Z,3.20
2018-09-30T05:11:42.944Z,3.70
2018-09-30T05:14:11.192Z,4.40
2018-09-30T05:16:39.884Z,3.60
2018-09-30T05:19:08.059Z,3.80
2018-09-30T05:21:36.743Z,3.77
2018-09-30T05:24:04.969Z,3.27
2018-09-30T05:26:33.145Z,3.67
2018-09-30T05:29:01.377Z,4.00
2018-09-30T05:31:29.551Z,3.70
2018-09-30T05:33:57.699Z,4.00
2018-09-30T05:36:26.710Z,3.73
2018-09-30T05:38:54.907Z,3.73
2018-09-30T05:41:23.098Z,4.20
2018-09-30T05:43:51.279Z,4.20
2018-09-30T05:46:19.496Z,3.50
2018-09-30T05:48:47.681Z,4.30
2018-09-30T05:51:22.635Z,3.80
2018-09-30T05:53:50.831Z,4.67
2018-09-30T05:56:19.033Z,3.90
2018-09-30T05:58:47.230Z,3.80
2018-09-30T06:01:15.446Z,3.80
2018-09-30T06:03:43.673Z,3.97
2018-09-30T06:06:11.963Z,3.80
2018-09-30T06:08:40.285Z,3.70
2018-09-30T06:11:08.477Z,3.60
2018-09-30T06:13:36.642Z,3.87
2018-09-30T06:16:04.863Z,2.90
2018-09-30T06:18:32.985Z,3.70
2018-09-30T06:21:01.160Z,3.50
2018-09-30T06:23:29.365Z,4.30
2018-09-30T06:25:57.519Z,4.10
2018-09-30T06:28:25.733Z,4.87
2018-09-30T06:30:53.934Z,4.83
2018-09-30T06:33:22.120Z,4.50
2018-09-30T06:35:57.215Z,4.30
2018-09-30T06:38:25.385Z,3.80
2018-09-30T06:40:53.624Z,4.10
2018-09-30T06:43:21.845Z,4.40
2018-09-30T06:45:50.063Z,4.30
2018-09-30T06:48:18.227Z,4.03
2018-09-30T06:50:46.539Z,4.20
2018-09-30T06:53:14.691Z,3.60
2018-09-30T06:55:42.915Z,3.37
2018-09-30T06:58:11.138Z,4.60
2018-09-30T07:00:39.267Z,4.50
2018-09-30T07:03:07.412Z,4.50
2018-09-30T07:05:35.546Z,3.90
2018-09-30T07:08:04.563Z,3.87
2018-09-30T07:10:33.124Z,3.77
2018-09-30T07:13:01.272Z,3.73
2018-09-30T07:15:29.431Z,2.77
2018-09-30T07:17:57.564Z,3.67
2018-09-30T07:20:25.771Z,3.50
2018-09-30T07:22:53.992Z,3.27
2018-09-30T07:25:22.179Z,3.97
2018-09-30T07:27:50.388Z,3.67
2018-09-30T07:30:18.584Z,3.47
2018-09-30T07:32:46.808Z,4.10
2018-09-30T07:35:15.038Z,3.50
2018-09-30T07:37:43.225Z,3.80
2018-09-30T07:40:11.453Z,4.07
2018-09-30T07:42:40.565Z,3.77
2018-09-30T07:45:08.823Z,3.30
2018-09-30T07:47:37.025Z,3.20
2018-09-30T07:50:05.208Z,3.50
2018-09-30T07:52:33.427Z,3.20
2018-09-30T07:55:01.597Z,3.30
2018-09-30T07:57:29.776Z,3.90
2018-09-30T07:59:57.943Z,3.20
2018-09-30T08:02:26.123Z,3.27
2018-09-30T08:04:54.313Z,3.63
2018-09-30T08:07:22.566Z,2.53
2018-09-30T08:09:50.686Z,3.60
2018-09-30T08:12:18.847Z,3.20
2018-09-30T08:14:47.111Z,3.70
2018-09-30T08:17:15.361Z,3.00
2018-09-30T08:19:43.535Z,3.10
2018-09-30T08:22:11.663Z,3.93
2018-09-30T08:24:39.863Z,3.27
2018-09-30T08:27:08.069Z,3.30
2018-09-30T08:29:36.295Z,2.93
2018-09-30T08:32:04.474Z,3.43
2018-09-30T08:34:33.771Z,4.03
2018-09-30T08:37:01.898Z,3.53
2018-09-30T08:39:30.129Z,3.00
2018-09-30T08:41:58.295Z,3.60
2018-09-30T08:44:26.459Z,2.47
2018-09-30T08:46:54.609Z,3.07
2018-09-30T08:49:22.807Z,3.27
2018-09-30T08:51:51.265Z,3.13
2018-09-30T08:54:19.505Z,2.70
2018-09-30T08:56:47.679Z,3.27
2018-09-30T08:59:15.839Z,3.10
2018-09-30T09:01:44.167Z,2.60
2018-09-30T09:04:12.481Z,3.40
2018-09-30T09:06:40.761Z,2.73
2018-09-30T09:09:10.634Z,2.70
2018-09-30T09:11:39.499Z,2.37
2018-09-30T09:14:07.935Z,2.47
2018-09-30T09:16:36.115Z,2.47
2018-09-30T09:19:04.261Z,4.17
2018-09-30T09:21:32.491Z,3.27
2018-09-30T09:24:00.698Z,2.33
2018-09-30T09:26:28.879Z,3.03
2018-09-30T09:28:57.159Z,2.77
2018-09-30T09:31:25.345Z,2.97
2018-09-30T09:33:53.543Z,2.30
2018-09-30T09:36:21.778Z,2.27
2018-09-30T09:38:49.915Z,2.40
2018-09-30T09:41:18.125Z,2.50
2018-09-30T09:43:46.299Z,2.37
2018-09-30T09:46:14.526Z,2.13
2018-09-30T09:48:42.743Z,2.20
2018-09-30T09:51:11.083Z,2.70
2018-09-30T09:53:39.277Z,2.23
2018-09-30T09:56:07.463Z,2.37
2018-09-30T09:58:35.635Z,2.17
2018-09-30T10:01:06.583Z,2.37
2018-09-30T10:03:35.632Z,1.93
2018-09-30T10:06:04.426Z,2.07
2018-09-30T10:08:32.601Z,2.43
2018-09-30T10:11:00.816Z,1.87
2018-09-30T10:13:28.996Z,2.27
2018-09-30T10:15:57.123Z,2.40
2018-09-30T10:18:25.295Z,2.40
2018-09-30T10:20:53.436Z,2.10
2018-09-30T10:23:21.659Z,2.10
2018-09-30T10:25:49.806Z,2.00
2018-09-30T10:28:17.965Z,1.93
2018-09-30T10:30:46.133Z,2.43
2018-09-30T10:33:14.300Z,2.73
2018-09-30T10:35:42.508Z,2.00
2018-09-30T10:40:45.149Z,2.13
2018-09-30T10:43:13.387Z,2.20
2018-09-30T10:45:41.545Z,1.70
2018-09-30T10:48:09.691Z,1.87
2018-09-30T10:50:37.861Z,2.37
2018-09-30T10:53:12.834Z,1.80
2018-09-30T10:55:41.037Z,2.73
2018-09-30T10:58:09.316Z,2.10
2018-09-30T11:00:37.420Z,2.43
2018-09-30T11:03:05.675Z,2.27
2018-09-30T11:05:33.868Z,2.97
2018-09-30T11:08:02.067Z,2.60
2018-09-30T11:10:30.271Z,2.00
2018-09-30T11:12:58.534Z,1.87
2018-09-30T11:15:26.696Z,1.63
2018-09-30T11:17:54.971Z,2.40
2018-09-30T11:20:23.193Z,1.50
2018-09-30T11:22:51.440Z,1.97
2018-09-30T11:25:19.612Z,1.73
2018-09-30T11:27:47.768Z,2.10
2018-09-30T11:30:15.960Z,1.97
2018-09-30T11:32:44.129Z,1.90
2018-09-30T11:35:15.202Z,2.07
2018-09-30T11:37:44.448Z,2.30
2018-09-30T11:40:12.592Z,2.00
2018-09-30T11:42:40.923Z,1.87
2018-09-30T11:45:09.204Z,2.03
2018-09-30T11:47:37.438Z,2.30
2018-09-30T11:50:05.637Z,1.90
2018-09-30T11:52:33.922Z,1.60
2018-09-30T11:55:02.065Z,1.70
2018-09-30T11:57:30.329Z,2.93
2018-09-30T11:59:58.680Z,2.73
2018-09-30T12:02:26.858Z,2.27
2018-09-30T12:04:55.087Z,2.90
2018-09-30T12:07:23.477Z,2.07
2018-09-30T12:09:51.705Z,1.67
2018-09-30T12:12:19.853Z,2.07
2018-09-30T12:14:48.027Z,1.70
2018-09-30T12:17:16.175Z,2.00
2018-09-30T12:19:44.865Z,1.87
2018-09-30T12:22:13.064Z,1.93
2018-09-30T12:24:41.238Z,2.33
2018-09-30T12:27:09.698Z,3.10
2018-09-30T12:29:37.948Z,2.33
2018-09-30T12:32:06.626Z,2.17
2018-09-30T12:34:35.986Z,2.20
2018-09-30T12:37:04.166Z,2.97
2018-09-30T12:39:32.388Z,2.90
2018-09-30T12:42:00.592Z,4.27
2018-09-30T12:44:29.056Z,3.80
2018-09-30T12:46:57.310Z,2.63
2018-09-30T12:49:25.478Z,2.20
2018-09-30T12:51:53.704Z,2.30
2018-09-30T12:54:21.872Z,2.60
2018-09-30T12:56:50.004Z,1.40
2018-09-30T12:59:18.183Z,2.40
2018-09-30T13:01:46.405Z,4.23
2018-09-30T13:04:15.299Z,3.50
2018-09-30T13:06:43.470Z,3.10
2018-09-30T13:09:11.676Z,2.73
2018-09-30T13:11:39.848Z,3.03
2018-09-30T13:14:08.349Z,3.77
2018-09-30T13:16:36.563Z,2.13
2018-09-30T13:19:04.731Z,2.57
2018-09-30T13:21:32.901Z,2.67
2018-09-30T13:24:01.103Z,2.20
2018-09-30T13:26:29.270Z,1.73
2018-09-30T13:28:57.492Z,1.57
2018-09-30T13:31:25.676Z,2.40
2018-09-30T13:33:53.842Z,1.70
2018-09-30T13:36:22.007Z,1.80
2018-09-30T13:38:50.227Z,1.70
2018-09-30T13:41:18.473Z,1.40
2018-09-30T13:43:46.644Z,2.00
2018-09-30T13:46:14.978Z,1.90
2018-09-30T13:48:43.151Z,2.27
2018-09-30T13:51:11.848Z,2.00
2018-09-30T13:53:40.027Z,2.20
2018-09-30T13:56:08.262Z,1.80
2018-09-30T13:58:37.422Z,1.70
2018-09-30T14:01:05.571Z,2.83
2018-09-30T14:03:33.820Z,1.90
2018-09-30T14:06:01.954Z,2.37
2018-09-30T14:08:30.120Z,1.40
2018-09-30T14:10:58.277Z,3.90
2018-09-30T14:13:26.434Z,2.80
2018-09-30T14:15:54.628Z,1.73
2018-09-30T14:18:22.749Z,2.00
2018-09-30T14:20:50.934Z,0.97
2018-09-30T14:23:19.110Z,1.50
2018-09-30T14:25:47.888Z,1.73
2018-09-30T14:28:16.028Z,1.10
2018-09-30T14:30:44.192Z,2.23
2018-09-30T14:33:12.400Z,1.77
2018-09-30T14:35:40.545Z,2.00
2018-09-30T14:38:08.729Z,1.93
2018-09-30T14:40:37.038Z,1.60
2018-09-30T14:43:05.243Z,1.53
2018-09-30T14:45:33.378Z,1.70
2018-09-30T14:48:01.533Z,2.00
2018-09-30T14:50:29.720Z,1.67
2018-09-30T14:52:57.869Z,3.20
2018-09-30T14:55:26.011Z,6.60
2018-09-30T14:57:54.212Z,6.90
2018-09-30T15:00:22.425Z,7.00
2018-09-30T15:02:50.572Z,8.53
2018-09-30T15:05:19.825Z,3.63
2018-09-30T15:07:48.158Z,5.53
2018-09-30T15:10:16.338Z,3.20
2018-09-30T15:12:44.511Z,4.80
2018-09-30T15:15:12.689Z,2.80
2018-09-30T15:17:40.846Z,4.90
2018-09-30T15:20:09.090Z,2.37
2018-09-30T15:22:37.211Z,3.70
2018-09-30T15:25:05.358Z,3.07
2018-09-30T15:27:33.702Z,2.00
2018-09-30T15:30:01.935Z,1.60
2018-09-30T15:32:30.114Z,1.60
2018-09-30T15:34:58.335Z,2.20
2018-09-30T15:37:26.586Z,3.07
2018-09-30T15:39:54.776Z,5.83
2018-09-30T15:42:23.015Z,6.47
2018-09-30T15:44:51.212Z,6.70
2018-09-30T15:47:19.368Z,5.10
2018-09-30T15:49:47.502Z,6.00
2018-09-30T15:52:15.646Z,3.33
2018-09-30T15:54:43.857Z,3.70
2018-09-30T15:57:12.089Z,5.27
2018-09-30T15:59:41.106Z,4.40
2018-09-30T16:02:09.362Z,6.03
2018-09-30T16:04:37.583Z,9.53
2018-09-30T16:07:06.051Z,11.47
2018-09-30T16:09:34.203Z,11.43
2018-09-30T16:12:02.377Z,12.30
2018-09-30T16:14:30.547Z,12.90
2018-09-30T16:16:58.708Z,10.33
2018-09-30T16:19:26.896Z,8.47
2018-09-30T16:21:55.084Z,7.73
2018-09-30T16:24:23.283Z,10.10
2018-09-30T16:26:51.416Z,10.20
2018-09-30T16:29:19.601Z,9.60
2018-09-30T16:31:47.788Z,7.10
2018-09-30T16:34:15.904Z,6.80
2018-09-30T16:36:44.174Z,7.30
2018-09-30T16:39:12.389Z,7.33
2018-09-30T16:41:40.583Z,7.17
2018-09-30T16:44:08.812Z,8.00
2018-09-30T16:46:37.116Z,10.03
2018-09-30T16:49:05.342Z,6.97
2018-09-30T16:51:33.567Z,6.10
2018-09-30T16:54:01.729Z,6.83
2018-09-30T16:56:29.979Z,6.93
2018-09-30T16:58:58.176Z,8.90
2018-09-30T17:01:26.354Z,7.97
2018-09-30T17:03:54.544Z,10.00
2018-09-30T17:06:22.773Z,7.23
2018-09-30T17:08:50.937Z,8.40
2018-09-30T17:11:19.120Z,8.47
2018-09-30T17:13:47.646Z,8.10
2018-09-30T17:16:15.877Z,5.80
2018-09-30T17:18:44.671Z,5.50
2018-09-30T17:21:12.828Z,6.67
2018-09-30T17:23:41.034Z,5.77
2018-09-30T17:26:09.447Z,6.60
2018-09-30T17:28:37.825Z,7.97
2018-09-30T17:31:06.306Z,8.90
2018-09-30T17:33:34.452Z,7.10
2018-09-30T17:36:02.932Z,7.60
2018-09-30T17:38:31.149Z,9.50
2018-09-30T17:40:59.615Z,7.80
2018-09-30T17:43:28.002Z,7.37
2018-09-30T17:45:56.208Z,7.00
2018-09-30T17:48:24.376Z,7.30
2018-09-30T17:50:52.586Z,8.33
2018-09-30T17:53:20.779Z,8.30
2018-09-30T17:55:49.226Z,8.07
2018-09-30T17:58:17.454Z,10.57
2018-09-30T18:00:45.622Z,17.60
2018-09-30T18:03:13.821Z,16.97
2018-09-30T18:05:42.214Z,40.13
2018-09-30T18:08:10.487Z,13.77
2018-09-30T18:10:38.782Z,13.60
2018-09-30T18:13:07.931Z,33.73
2018-09-30T18:15:36.172Z,12.50
2018-09-30T18:18:04.390Z,11.93
2018-09-30T18:20:32.703Z,11.67
2018-09-30T18:23:01.496Z,13.40
2018-09-30T18:25:29.843Z,14.53
2018-09-30T18:27:58.081Z,13.43
2018-09-30T18:30:26.309Z,15.77
2018-09-30T18:32:55.002Z,15.37
2018-09-30T18:35:23.269Z,14.50
2018-09-30T18:37:51.690Z,15.90
2018-09-30T18:40:19.989Z,16.90
2018-09-30T18:42:48.135Z,16.33
2018-09-30T18:45:16.314Z,16.50
2018-09-30T18:47:44.523Z,16.47
2018-09-30T18:50:12.744Z,18.90
2018-09-30T18:52:41.056Z,18.57
2018-09-30T18:55:10.325Z,16.30
2018-09-30T18:57:38.615Z,18.23
2018-09-30T19:00:07.093Z,19.20
2018-09-30T19:02:35.848Z,18.10
2018-09-30T19:05:04.152Z,18.53
2018-09-30T19:07:32.437Z,18.77
2018-09-30T19:10:00.805Z,18.30
2018-09-30T19:12:29.040Z,18.53
2018-09-30T19:14:57.268Z,21.03
2018-09-30T19:17:25.473Z,19.43
2018-09-30T19:19:53.710Z,28.00
2018-09-30T19:22:22.094Z,17.60
2018-09-30T19:24:50.416Z,17.13
2018-09-30T19:27:18.712Z,15.43
2018-09-30T19:29:47.025Z,16.60
2018-09-30T19:32:15.334Z,17.33
2018-09-30T19:34:43.739Z,17.43
2018-09-30T19:37:12.768Z,16.53
2018-09-30T19:39:41.031Z,19.27
2018-09-30T19:42:09.189Z,18.63
2018-09-30T19:44:37.444Z,19.50
2018-09-30T19:47:05.790Z,18.60
2018-09-30T19:49:34.092Z,18.93
2018-09-30T19:52:02.435Z,22.00
2018-09-30T19:54:30.769Z,19.40
2018-09-30T19:56:59.046Z,20.97
2018-09-30T19:59:27.293Z,19.73
2018-09-30T20:01:55.468Z,19.30
2018-09-30T20:04:23.657Z,19.20
2018-09-30T20:06:52.016Z,20.57
2018-09-30T20:09:20.330Z,21.00
2018-09-30T20:11:49.130Z,19.30
2018-09-30T20:14:17.333Z,16.97
2018-09-30T20:16:47.334Z,18.27
2018-09-30T20:19:15.530Z,20.33
2018-09-30T20:21:44.429Z,18.97
2018-09-30T20:24:13.272Z,19.30
2018-09-30T20:26:42.154Z,19.30
2018-09-30T20:29:10.478Z,19.67
2018-09-30T20:31:38.670Z,20.33
2018-09-30T20:34:06.923Z,20.10
2018-09-30T20:36:35.359Z,19.63
2018-09-30T20:39:04.292Z,19.00
2018-09-30T20:41:32.598Z,19.47
2018-09-30T20:44:00.778Z,19.57
2018-09-30T20:46:29.572Z,19.10
2018-09-30T20:48:57.914Z,19.53
2018-09-30T20:51:26.105Z,21.40
2018-09-30T20:53:54.314Z,18.40
2018-09-30T20:56:23.056Z,18.87
2018-09-30T20:58:51.340Z,17.97
2018-09-30T21:01:20.017Z,15.30
2018-09-30T21:03:48.224Z,16.67
2018-09-30T21:06:22.487Z,16.50
2018-09-30T21:08:50.692Z,17.20
2018-09-30T21:11:19.041Z,16.30
2018-09-30T21:13:47.256Z,16.70
2018-09-30T21:16:15.459Z,15.00
2018-09-30T21:18:44.354Z,16.13
2018-09-30T21:21:12.483Z,15.00
2018-09-30T21:23:40.686Z,14.37
2018-09-30T21:26:08.855Z,13.37
2018-09-30T21:28:37.094Z,16.87
2018-09-30T21:31:05.480Z,16.17
2018-09-30T21:33:34.071Z,15.20
2018-09-30T21:36:02.271Z,14.23
2018-09-30T21:38:31.038Z,15.93
2018-09-30T21:40:59.211Z,15.07
2018-09-30T21:43:27.369Z,13.27
2018-09-30T21:45:55.585Z,15.10
2018-09-30T21:48:23.786Z,14.43
2018-09-30T21:50:52.026Z,14.43
2018-09-30T21:53:20.278Z,13.97
2018-09-30T21:55:48.588Z,14.30
2018-09-30T21:58:17.077Z,15.37
2018-09-30T22:00:50.933Z,13.90
2018-09-30T22:03:19.133Z,12.77
2018-09-30T22:05:47.945Z,14.70
2018-09-30T22:08:16.137Z,15.50
2018-09-30T22:10:44.279Z,14.60
2018-09-30T22:13:12.891Z,14.20
2018-09-30T22:15:41.511Z,14.07
2018-09-30T22:18:09.878Z,15.03
2018-09-30T22:20:38.165Z,19.10
2018-09-30T22:23:06.557Z,15.57
2018-09-30T22:25:35.528Z,15.27
2018-09-30T22:28:03.664Z,14.93
2018-09-30T22:30:32.421Z,14.73
2018-09-30T22:33:00.595Z,13.93
2018-09-30T22:35:28.775Z,14.50
2018-09-30T22:37:56.883Z,14.20
2018-09-30T22:40:25.303Z,14.13
2018-09-30T22:42:53.453Z,14.80
2018-09-30T22:45:23.359Z,14.87
2018-09-30T22:47:51.560Z,13.83
2018-09-30T22:50:19.792Z,14.03
2018-09-30T22:52:47.909Z,14.47
2018-09-30T22:55:16.061Z,15.03
2018-09-30T22:57:44.245Z,16.00
2018-09-30T23:00:12.448Z,21.37
2018-09-30T23:02:40.676Z,15.67
2018-09-30T23:05:09.374Z,14.57
2018-09-30T23:07:38.497Z,16.97
2018-09-30T23:10:10.790Z,16.03
2018-09-30T23:12:38.946Z,15.10
2018-09-30T23:15:07.088Z,14.63
2018-09-30T23:17:35.305Z,14.87
2018-09-30T23:20:03.586Z,14.93
2018-09-30T23:22:31.679Z,14.50
2018-09-30T23:24:59.853Z,14.13
2018-09-30T23:27:28.029Z,15.20
2018-09-30T23:29:56.234Z,14.50
2018-09-30T23:32:24.347Z,13.47
2018-09-30T23:34:52.515Z,15.60
2018-09-30T23:37:20.641Z,14.70
2018-09-30T23:39:48.873Z,13.23
2018-09-30T23:42:17.015Z,14.90
2018-09-30T23:44:45.142Z,13.40
2018-09-30T23:47:13.279Z,13.93
2018-09-30T23:49:41.422Z,13.73
2018-09-30T23:52:09.617Z,12.97
2018-09-30T23:54:37.775Z,13.27
2018-09-30T23:57:05.984Z,12.00
2018-09-30T23:59:34.154Z,12.37
